Terminal Aerodrome Forecast
Issued by NWS Cleveland, OH

Home | Current Version | Previous Version | Graphics & Text | Print | Product List | Glossary On
Versions: 1 2 3 4 5 6 7 8 9 10 11 12 13 14 15 16 17 18 19 20 21 22 23
994
FTUS41 KCLE 020928 AAA
TAFMFD
TAF AMD
KMFD 020928Z 0209/0306 36007KT P6SM OVC035
     FM021100 34008KT 4SM BR OVC003
     FM021600 35008KT 6SM BR OVC015
     FM021900 36007KT P6SM OVC015
     FM030100 01004KT P6SM OVC035=

USA.gov is the U.S. government's official web portal to all federal, state and local government web resources and services.